Time;durP1;ratioP1;P1;durP2;ratioP2;P2;SDS_P1;SDS_P2;PMS_P1;PMS_P2;Temp;Humidity;BMP_temperature;BMP_pressure;BME280_temperature;BME280_humidity;BME280_pressure;Samples;Min_cycle;Max_cycle;Signal;HPM_P1;HPM_P2
2022/06/25 00:02:22;;;;;;;4.32;2.90;;;;;;;18.46;100.00;100645.41;6150049;29;20051;-73
2022/06/25 00:05:29;;;;;;;4.28;2.75;;;;;;;18.42;100.00;100656.47;6149914;29;20062;-72
2022/06/25 00:08:30;;;;;;;2.67;2.30;;;;;;;18.38;100.00;100657.72;6150290;29;20058;-73
2022/06/25 00:14:52;;;;;;;3.58;2.70;;;;;;;18.31;100.00;100662.75;6149875;29;20048;-72
2022/06/25 00:17:53;;;;;;;4.50;2.95;;;;;;;18.30;100.00;100661.03;6150035;29;20055;-72
2022/06/25 00:20:55;;;;;;;3.08;2.67;;;;;;;18.27;100.00;100661.31;6149573;29;20043;-72
2022/06/25 00:23:56;;;;;;;4.50;2.60;;;;;;;18.27;100.00;100663.97;6149383;29;20062;-72
2022/06/25 00:26:57;;;;;;;3.47;2.78;;;;;;;18.30;100.00;100677.00;6150185;29;20051;-72
2022/06/25 00:30:00;;;;;;;3.45;2.50;;;;;;;18.29;100.00;100679.78;6149391;29;20081;-72
2022/06/25 00:33:02;;;;;;;3.33;2.58;;;;;;;18.24;100.00;100689.00;6149889;29;20054;-72
2022/06/25 00:36:03;;;;;;;3.67;2.88;;;;;;;18.25;100.00;100697.84;6149618;29;20062;-72
2022/06/25 00:39:05;;;;;;;6.97;3.97;;;;;;;18.22;100.00;100703.44;6149623;28;20051;-72
2022/06/25 00:42:10;;;;;;;5.85;3.55;;;;;;;18.16;100.00;100715.44;6149404;29;20411;-71
2022/06/25 00:45:13;;;;;;;4.88;3.22;;;;;;;18.11;100.00;100707.00;6149575;29;20054;-72
2022/06/25 00:48:15;;;;;;;11.15;3.60;;;;;;;18.09;100.00;100716.94;6154026;29;20051;-72
2022/06/25 00:51:16;;;;;;;4.75;3.65;;;;;;;18.09;100.00;100718.75;6155802;29;20062;-72
2022/06/25 00:54:20;;;;;;;7.15;3.90;;;;;;;18.09;100.00;100716.94;6156596;29;20538;-72
2022/06/25 00:57:24;;;;;;;5.95;3.92;;;;;;;18.07;100.00;100716.22;6156805;29;20058;-72
2022/06/25 01:00:26;;;;;;;6.22;3.60;;;;;;;18.03;100.00;100717.44;6156833;29;20499;-72
2022/06/25 01:03:28;;;;;;;5.35;3.53;;;;;;;17.99;100.00;100714.22;6157690;29;20052;-72
2022/06/25 01:06:30;;;;;;;6.40;3.85;;;;;;;17.97;100.00;100725.97;6158174;29;20051;-72
2022/06/25 01:09:31;;;;;;;5.00;3.70;;;;;;;17.94;100.00;100734.19;6157734;29;20416;-72
2022/06/25 01:12:33;;;;;;;5.85;3.95;;;;;;;17.99;100.00;100747.97;6158200;29;20055;-72
2022/06/25 01:15:36;;;;;;;7.05;4.18;;;;;;;18.04;100.00;100744.91;6155718;29;20051;-73
2022/06/25 01:18:37;;;;;;;6.38;4.05;;;;;;;18.11;100.00;100748.72;6149140;29;20059;-73
2022/06/25 01:21:40;;;;;;;6.28;4.57;;;;;;;18.17;100.00;100754.38;6148423;29;20419;-73
2022/06/25 01:24:42;;;;;;;5.05;3.30;;;;;;;18.18;100.00;100761.38;6148872;29;20061;-73
2022/06/25 01:27:44;;;;;;;7.45;4.57;;;;;;;18.18;100.00;100744.56;6149307;29;20058;-72
2022/06/25 01:30:45;;;;;;;6.80;4.35;;;;;;;18.15;100.00;100748.31;6148832;29;20058;-72
2022/06/25 01:33:46;;;;;;;5.43;3.97;;;;;;;18.14;100.00;100753.78;6148850;29;20495;-72
2022/06/25 01:36:48;;;;;;;6.68;4.13;;;;;;;18.13;100.00;100752.94;6149216;29;20064;-72
2022/06/25 01:39:53;;;;;;;5.55;4.20;;;;;;;18.10;100.00;100755.03;6148559;29;20522;-72
2022/06/25 01:43:01;;;;;;;5.50;3.53;;;;;;;18.08;100.00;100751.66;6149010;29;20058;-73
2022/06/25 01:46:04;;;;;;;4.70;3.60;;;;;;;18.08;100.00;100754.31;6148756;29;20059;-73
2022/06/25 01:49:06;;;;;;;6.57;4.53;;;;;;;18.09;100.00;100759.50;6149263;28;20094;-72
2022/06/25 01:52:07;;;;;;;5.78;4.22;;;;;;;18.12;100.00;100759.25;6152806;29;20047;-73
2022/06/25 01:55:10;;;;;;;7.75;4.55;;;;;;;18.11;100.00;100757.53;6152737;29;20061;-73
2022/06/25 01:58:12;;;;;;;6.53;4.35;;;;;;;18.14;100.00;100762.59;6153070;29;20514;-73
2022/06/25 02:01:13;;;;;;;7.65;3.60;;;;;;;18.16;100.00;100765.97;6152632;29;20054;-73
2022/06/25 02:04:14;;;;;;;7.35;4.55;;;;;;;18.16;100.00;100762.47;6152647;29;20499;-72
2022/06/25 02:07:16;;;;;;;6.93;4.45;;;;;;;18.17;100.00;100764.19;6152959;29;20055;-72
2022/06/25 02:10:18;;;;;;;6.10;4.20;;;;;;;18.17;100.00;100762.34;6152451;29;20055;-73
2022/06/25 02:13:20;;;;;;;5.60;4.05;;;;;;;18.19;100.00;100767.53;6152850;29;20055;-73
2022/06/25 02:16:21;;;;;;;7.30;4.10;;;;;;;18.17;100.00;100758.84;6152390;29;20137;-73
2022/06/25 02:19:23;;;;;;;6.10;4.05;;;;;;;18.16;100.00;100760.66;6152686;29;20051;-73
2022/06/25 02:22:24;;;;;;;7.28;4.10;;;;;;;18.15;100.00;100769.59;6152033;29;20051;-71
2022/06/25 02:25:27;;;;;;;6.63;4.82;;;;;;;18.13;100.00;100768.91;6151218;29;20059;-72
2022/06/25 02:28:28;;;;;;;5.25;3.47;;;;;;;18.14;100.00;100761.75;6144464;29;20054;-73
2022/06/25 02:31:30;;;;;;;8.50;4.88;;;;;;;18.12;100.00;100761.91;6143757;29;20047;-72
2022/06/25 02:34:31;;;;;;;5.75;4.05;;;;;;;18.16;100.00;100759.81;6152105;29;20043;-72
2022/06/25 02:37:33;;;;;;;6.10;3.95;;;;;;;18.14;100.00;100761.75;6152013;29;20055;-72
2022/06/25 02:40:36;;;;;;;6.95;4.65;;;;;;;18.16;100.00;100760.66;6189476;23;20054;-75
2022/06/25 02:43:37;;;;;;;5.85;4.45;;;;;;;18.14;100.00;100767.94;6198377;28;20050;-75
2022/06/25 02:46:38;;;;;;;5.25;3.80;;;;;;;18.15;100.00;100774.09;6175246;28;20514;-76
2022/06/25 02:49:41;;;;;;;5.65;4.10;;;;;;;18.16;100.00;100779.25;6204841;28;20553;-77
2022/06/25 02:52:42;;;;;;;5.20;3.97;;;;;;;18.16;100.00;100776.59;6244852;28;20084;-75
2022/06/25 02:59:04;;;;;;;6.07;4.47;;;;;;;18.16;100.00;100787.25;6219990;28;20128;-76
2022/06/25 03:02:05;;;;;;;7.00;4.30;;;;;;;18.17;100.00;100793.44;6222599;28;20046;-75
2022/06/25 03:05:07;;;;;;;8.55;5.13;;;;;;;18.17;100.00;100794.28;6223607;28;20072;-75
2022/06/25 03:08:09;;;;;;;7.32;5.22;;;;;;;18.17;100.00;100798.75;6223975;28;20053;-75
2022/06/25 03:11:11;;;;;;;10.23;4.65;;;;;;;18.18;100.00;100800.44;6223611;28;20498;-75
2022/06/25 03:14:13;;;;;;;6.22;4.07;;;;;;;18.16;100.00;100797.88;6223457;28;20042;-75
2022/06/25 03:17:14;;;;;;;6.00;3.60;;;;;;;18.16;100.00;100791.72;6223906;28;20053;-75
2022/06/25 03:20:15;;;;;;;5.97;3.67;;;;;;;18.13;100.00;100792.84;6224611;28;20061;-76
2022/06/25 03:23:17;;;;;;;8.18;5.30;;;;;;;18.08;100.00;100789.72;6223794;28;20042;-75
2022/06/25 03:26:20;;;;;;;7.68;3.97;;;;;;;18.11;100.00;100789.44;6223218;28;20058;-75
2022/06/25 03:29:21;;;;;;;7.07;5.22;;;;;;;18.11;100.00;100793.94;6223675;28;20049;-76
2022/06/25 03:32:22;;;;;;;8.57;5.18;;;;;;;18.11;100.00;100791.28;6223395;28;20046;-76
2022/06/25 03:35:24;;;;;;;8.75;5.45;;;;;;;18.09;100.00;100791.41;6223014;28;20050;-76
2022/06/25 03:38:25;;;;;;;6.95;4.78;;;;;;;18.08;100.00;100796.88;6223493;28;20061;-75
2022/06/25 03:41:35;;;;;;;8.00;5.75;;;;;;;18.10;100.00;100811.72;6222806;28;20053;-75
2022/06/25 03:44:37;;;;;;;6.30;4.30;;;;;;;18.09;100.00;100810.03;6223042;28;20054;-76
2022/06/25 03:47:38;;;;;;;8.38;5.22;;;;;;;18.08;100.00;100815.50;6223162;28;20057;-76
2022/06/25 03:50:39;;;;;;;8.52;4.65;;;;;;;18.08;100.00;100818.16;6223838;28;20053;-76
2022/06/25 03:53:41;;;;;;;13.70;5.38;;;;;;;18.08;100.00;100828.78;6222755;28;20057;-78
2022/06/25 03:56:44;;;;;;;6.85;4.50;;;;;;;18.09;100.00;100827.81;6223240;28;20042;-76
2022/06/25 03:59:45;;;;;;;8.18;5.28;;;;;;;18.10;100.00;100842.78;6222513;28;20053;-76
2022/06/25 04:02:47;;;;;;;9.00;4.93;;;;;;;18.14;100.00;100841.56;6222808;28;20445;-76
2022/06/25 04:05:48;;;;;;;11.05;5.82;;;;;;;18.19;100.00;100836.69;6222398;28;20046;-76
2022/06/25 04:08:49;;;;;;;9.98;5.57;;;;;;;18.25;100.00;100845.00;6222724;28;20050;-76
2022/06/25 04:11:52;;;;;;;5.93;4.13;;;;;;;18.29;100.00;100837.59;6222144;28;20061;-76
2022/06/25 04:14:53;;;;;;;9.52;6.00;;;;;;;18.34;100.00;100843.38;6222313;28;20049;-75
2022/06/25 04:17:55;;;;;;;6.95;4.28;;;;;;;18.42;100.00;100845.41;6222696;28;20073;-76
2022/06/25 04:20:56;;;;;;;6.13;3.97;;;;;;;18.49;100.00;100846.56;6222965;28;20413;-75
2022/06/25 04:23:57;;;;;;;5.15;3.78;;;;;;;18.53;100.00;100837.38;6221940;28;20386;-76
2022/06/25 04:27:00;;;;;;;6.65;3.88;;;;;;;18.55;100.00;100848.72;6222300;28;20056;-75
2022/06/25 04:30:01;;;;;;;4.97;3.30;;;;;;;18.58;100.00;100843.13;6222142;28;20062;-75
2022/06/25 04:33:02;;;;;;;6.45;4.05;;;;;;;18.63;100.00;100846.25;6222207;28;20088;-75
2022/06/25 04:36:04;;;;;;;8.65;4.22;;;;;;;18.69;100.00;100840.41;6222243;28;20060;-71
2022/06/25 04:39:05;;;;;;;7.53;4.72;;;;;;;18.74;100.00;100843.53;6222020;28;20053;-74
2022/06/25 04:42:09;;;;;;;5.38;3.80;;;;;;;18.79;100.00;100842.28;6221392;28;20052;-75
2022/06/25 04:45:10;;;;;;;4.85;3.85;;;;;;;18.85;100.00;100853.25;6221854;28;20053;-75
2022/06/25 04:48:12;;;;;;;4.35;3.00;;;;;;;18.93;100.00;100861.41;6222005;28;20628;-75
2022/06/25 04:51:13;;;;;;;11.40;5.05;;;;;;;19.00;100.00;100856.41;6221698;28;20046;-75
2022/06/25 04:54:15;;;;;;;6.75;4.50;;;;;;;19.05;100.00;100858.66;6220045;28;20643;-75
2022/06/25 04:57:17;;;;;;;5.35;4.10;;;;;;;19.11;100.00;100864.28;6220542;28;20046;-73
2022/06/25 05:00:19;;;;;;;5.53;4.25;;;;;;;19.22;100.00;100863.38;6219705;28;20050;-76
2022/06/25 05:03:20;;;;;;;4.60;3.20;;;;;;;19.23;100.00;100863.22;6220292;28;20428;-75
2022/06/25 05:06:22;;;;;;;5.93;4.30;;;;;;;19.31;100.00;100878.56;6219801;28;20050;-75
2022/06/25 05:09:23;;;;;;;4.25;3.17;;;;;;;19.35;100.00;100871.09;6217879;28;20053;-76
2022/06/25 05:15:45;;;;;;;4.65;3.08;;;;;;;19.32;100.00;100884.72;6217527;28;20058;-75
2022/06/25 05:18:48;;;;;;;5.10;3.63;;;;;;;19.32;100.00;100884.72;6220935;28;20054;-75
2022/06/25 05:21:49;;;;;;;6.07;4.20;;;;;;;19.35;100.00;100881.75;6222342;28;20054;-75
2022/06/25 05:24:50;;;;;;;4.72;3.03;;;;;;;19.27;100.00;100885.97;6222946;28;20046;-75
2022/06/25 05:27:53;;;;;;;4.57;3.53;;;;;;;19.24;100.00;100886.22;6226128;28;20050;-75
2022/06/25 05:30:54;;;;;;;4.03;2.80;;;;;;;19.21;100.00;100883.84;6225190;28;20072;-75
2022/06/25 05:33:55;;;;;;;5.78;3.50;;;;;;;19.21;100.00;100888.31;6225454;28;20053;-76
2022/06/25 05:36:57;;;;;;;7.03;3.17;;;;;;;19.18;100.00;100897.44;6226168;28;20057;-75
2022/06/25 05:39:58;;;;;;;3.42;2.90;;;;;;;19.16;100.00;100896.69;6225562;28;20046;-75
2022/06/25 05:43:01;;;;;;;6.20;4.03;;;;;;;19.15;100.00;100894.19;6225935;28;20046;-75
2022/06/25 05:46:02;;;;;;;6.13;3.58;;;;;;;19.17;100.00;100902.91;6225624;28;20421;-75
2022/06/25 05:49:04;;;;;;;4.40;3.22;;;;;;;19.20;100.00;100898.13;6226007;28;20053;-75
2022/06/25 05:52:06;;;;;;;5.63;2.60;;;;;;;19.27;100.00;100906.44;6227477;28;20054;-75
2022/06/25 05:55:08;;;;;;;4.38;3.03;;;;;;;19.30;100.00;100906.16;6225797;28;20054;-75
2022/06/25 05:58:12;;;;;;;3.97;2.40;;;;;;;19.37;100.00;100911.81;6225753;28;20050;-74
2022/06/25 06:01:13;;;;;;;3.13;1.67;;;;;;;19.38;100.00;100909.00;6224998;28;20125;-75
2022/06/25 06:04:15;;;;;;;3.28;2.65;;;;;;;19.49;100.00;100916.06;6225207;28;20049;-75
2022/06/25 06:07:16;;;;;;;4.40;2.42;;;;;;;19.60;100.00;100915.09;6225590;28;20046;-75
2022/06/25 06:10:18;;;;;;;2.85;2.00;;;;;;;19.65;100.00;100916.41;6225219;28;20054;-76
2022/06/25 06:13:20;;;;;;;3.75;2.10;;;;;;;19.69;100.00;100923.16;6225294;28;20050;-76
2022/06/25 06:16:21;;;;;;;1.98;1.60;;;;;;;19.79;100.00;100925.84;6225086;28;20050;-77
2022/06/25 06:19:23;;;;;;;3.35;1.67;;;;;;;19.78;100.00;100926.84;6225111;28;20057;-75
2022/06/25 06:22:24;;;;;;;3.35;2.00;;;;;;;19.84;100.00;100928.09;6225949;28;20049;-75
2022/06/25 06:25:26;;;;;;;1.90;1.70;;;;;;;19.91;100.00;100924.75;6224590;28;20398;-75
2022/06/25 06:28:28;;;;;;;2.97;1.60;;;;;;;19.91;100.00;100926.59;6224981;28;20101;-75
2022/06/25 06:31:30;;;;;;;1.92;1.70;;;;;;;19.90;100.00;100932.91;6224517;28;20049;-75
2022/06/25 06:34:31;;;;;;;6.35;1.75;;;;;;;19.89;100.00;100931.19;6224345;28;20056;-76
2022/06/25 06:37:33;;;;;;;4.10;2.22;;;;;;;19.90;100.00;100922.25;6224679;28;20050;-75
2022/06/25 06:40:34;;;;;;;3.60;1.52;;;;;;;19.95;100.00;100941.34;6224270;28;20061;-75
2022/06/25 06:43:37;;;;;;;1.45;1.13;;;;;;;19.93;100.00;100930.78;6224970;28;20056;-75
2022/06/25 06:46:38;;;;;;;3.60;1.48;;;;;;;19.97;100.00;100937.53;6224075;28;20159;-75
2022/06/25 06:49:39;;;;;;;1.80;1.50;;;;;;;19.97;100.00;100934.03;6224350;28;20049;-78
2022/06/25 06:52:41;;;;;;;2.88;1.40;;;;;;;19.96;100.00;100940.34;6246174;28;20072;-75
2022/06/25 06:55:42;;;;;;;1.88;1.48;;;;;;;20.05;100.00;100933.34;6248892;28;20052;-74
2022/06/25 06:58:45;;;;;;;2.25;1.23;;;;;;;20.06;100.00;100932.34;6248854;28;20053;-75
2022/06/25 07:01:46;;;;;;;2.45;1.40;;;;;;;20.13;100.00;100938.84;6248684;28;20049;-75
2022/06/25 07:04:48;;;;;;;2.00;1.55;;;;;;;20.17;100.00;100941.09;6248326;28;20053;-75
2022/06/25 07:07:49;;;;;;;1.55;1.25;;;;;;;20.22;100.00;100944.19;6248470;28;20061;-75
2022/06/25 07:10:50;;;;;;;1.98;1.33;;;;;;;20.27;100.00;100949.94;6248033;28;20497;-75
2022/06/25 07:13:54;;;;;;;2.92;1.48;;;;;;;20.37;100.00;100955.28;6247931;28;20053;-74
2022/06/25 07:16:55;;;;;;;1.58;1.38;;;;;;;20.51;100.00;100956.72;6248566;28;20060;-75
2022/06/25 07:19:57;;;;;;;4.53;1.75;;;;;;;20.58;100.00;100947.16;6246570;28;20756;-75
2022/06/25 07:22:59;;;;;;;2.10;1.60;;;;;;;20.66;100.00;100943.75;6223856;28;20041;-74
2022/06/25 07:26:00;;;;;;;1.55;1.30;;;;;;;20.67;100.00;100940.13;6220237;28;20056;-75
2022/06/25 07:29:03;;;;;;;3.40;1.58;;;;;;;20.73;100.00;100955.56;6223846;28;20052;-75
2022/06/25 07:32:05;;;;;;;6.63;1.98;;;;;;;20.77;100.00;100944.47;6222788;28;20452;-75
2022/06/25 07:35:08;;;;;;;2.97;1.52;;;;;;;20.82;100.00;100944.03;6223418;28;20046;-75
2022/06/25 07:38:09;;;;;;;3.80;1.27;;;;;;;20.91;99.83;100953.03;6223435;28;20045;-75
2022/06/25 07:41:10;;;;;;;2.08;1.30;;;;;;;21.00;95.15;100962.84;6222437;28;20068;-76
2022/06/25 07:44:13;;;;;;;1.50;1.30;;;;;;;20.98;94.75;100967.47;6222909;28;20041;-75
2022/06/25 07:47:15;;;;;;;3.28;1.23;;;;;;;21.07;94.81;100966.59;6222613;28;20092;-74
2022/06/25 07:53:36;;;;;;;1.27;1.02;;;;;;;21.10;92.79;100960.16;6247678;28;20053;-74
2022/06/25 07:56:37;;;;;;;1.35;1.10;;;;;;;21.15;91.82;100964.06;6247136;28;20052;-75
2022/06/25 07:59:40;;;;;;;1.85;1.17;;;;;;;21.18;92.01;100962.94;6247058;28;20060;-75
2022/06/25 08:02:41;;;;;;;1.20;1.02;;;;;;;21.24;91.90;100963.19;6247416;28;20042;-75
2022/06/25 08:05:42;;;;;;;0.85;0.80;;;;;;;21.29;92.35;100955.56;6246771;28;20045;-75
2022/06/25 08:08:44;;;;;;;4.72;1.20;;;;;;;21.41;88.92;100966.97;6219114;28;20049;-75
2022/06/25 08:11:45;;;;;;;1.50;0.93;;;;;;;21.45;88.94;100967.53;6205715;28;20418;-76
2022/06/25 08:14:48;;;;;;;2.53;1.00;;;;;;;21.51;86.00;100967.75;6214333;28;20064;-75
2022/06/25 08:17:49;;;;;;;0.80;0.80;;;;;;;21.45;88.33;100968.38;6208128;28;20421;-76
2022/06/25 08:20:50;;;;;;;0.93;0.90;;;;;;;21.43;87.70;100969.50;6208826;28;20053;-75
2022/06/25 08:23:52;;;;;;;1.42;1.10;;;;;;;21.43;87.75;100973.00;6206555;28;20125;-76
2022/06/25 08:26:53;;;;;;;1.63;1.08;;;;;;;21.47;87.88;100969.03;6215082;28;20050;-75
2022/06/25 08:29:56;;;;;;;2.17;1.48;;;;;;;21.62;88.03;100976.59;6221781;28;20050;-75
2022/06/25 08:32:57;;;;;;;1.27;1.00;;;;;;;21.61;86.65;100970.41;6222313;28;20061;-74
2022/06/25 08:35:58;;;;;;;3.63;1.25;;;;;;;21.65;85.38;100970.94;6219256;28;20520;-75
2022/06/25 08:39:00;;;;;;;1.30;1.08;;;;;;;21.82;86.02;100974.66;6222153;28;20057;-74
2022/06/25 08:42:02;;;;;;;1.50;0.90;;;;;;;21.93;83.56;100979.81;6213984;28;20426;-75
2022/06/25 08:45:07;;;;;;;2.50;1.30;;;;;;;22.03;84.09;100977.94;6217480;28;20565;-75
2022/06/25 08:48:12;;;;;;;1.10;1.00;;;;;;;22.00;81.15;100973.72;6222346;28;20049;-75
2022/06/25 08:51:14;;;;;;;2.67;1.35;;;;;;;21.99;80.28;100972.03;6232399;28;20049;-76
2022/06/25 08:54:16;;;;;;;0.95;0.80;;;;;;;22.17;79.85;100969.41;6245834;28;20050;-75
2022/06/25 08:57:18;;;;;;;1.70;0.88;;;;;;;22.24;78.55;100980.34;6246653;28;20724;-75
2022/06/25 09:00:21;;;;;;;1.35;1.00;;;;;;;22.28;78.39;100973.69;6248389;28;20049;-74
2022/06/25 09:03:22;;;;;;;1.20;1.00;;;;;;;22.29;79.20;100970.84;6251642;28;20057;-74
2022/06/25 09:06:23;;;;;;;1.63;1.15;;;;;;;22.39;78.55;100965.47;6251063;28;20054;-76
2022/06/25 09:09:25;;;;;;;1.20;1.00;;;;;;;22.55;75.93;100975.47;6251455;28;20053;-75
2022/06/25 09:12:26;;;;;;;1.83;1.00;;;;;;;22.58;73.38;100968.97;6250929;28;20045;-76
2022/06/25 09:15:31;;;;;;;1.40;0.95;;;;;;;22.56;73.60;100961.06;6251099;28;20485;-76
2022/06/25 09:18:34;;;;;;;2.53;0.90;;;;;;;22.57;75.04;100969.94;6251389;28;20056;-75
2022/06/25 09:21:41;;;;;;;1.23;1.00;;;;;;;22.53;73.43;100964.91;6246124;28;20051;-69
2022/06/25 09:24:45;;;;;;;1.35;1.00;;;;;;;22.55;74.48;100959.38;6224440;28;20042;-79
2022/06/25 09:27:47;;;;;;;3.63;0.73;;;;;;;22.64;72.83;100958.47;6226523;28;20050;-75
2022/06/25 09:30:49;;;;;;;2.70;0.80;;;;;;;22.75;72.45;100952.00;6221431;28;20054;-75
2022/06/25 09:33:51;;;;;;;1.52;0.93;;;;;;;22.87;73.14;100961.47;6225597;28;20045;-75
2022/06/25 09:36:52;;;;;;;1.17;0.90;;;;;;;23.03;70.28;100955.44;6226495;28;20050;-75
2022/06/25 09:39:55;;;;;;;1.45;0.80;;;;;;;23.06;70.09;100952.41;6225595;28;20053;-75
2022/06/25 09:42:57;;;;;;;1.83;1.02;;;;;;;23.14;70.56;100951.63;6225033;28;20054;-76
2022/06/25 09:46:05;;;;;;;1.35;0.95;;;;;;;23.19;70.60;100943.97;6225021;28;20049;-75
2022/06/25 09:49:22;;;;;;;1.02;0.88;;;;;;;23.18;69.21;100937.75;6226086;28;20045;-74
2022/06/25 09:52:24;;;;;;;1.15;0.82;;;;;;;23.23;67.76;100942.66;6244369;28;20425;-75
2022/06/25 09:55:27;;;;;;;0.70;0.70;;;;;;;23.24;67.64;100938.94;6249991;28;20052;-75
2022/06/25 09:58:31;;;;;;;0.80;0.77;;;;;;;23.43;65.96;100946.75;6250173;28;20049;-76
2022/06/25 10:01:34;;;;;;;2.03;0.98;;;;;;;23.57;65.66;100944.47;6249763;28;20232;-76
2022/06/25 10:04:35;;;;;;;0.80;0.63;;;;;;;23.55;63.30;100937.44;6249765;28;20045;-76
2022/06/25 10:10:57;;;;;;;1.88;0.73;;;;;;;23.60;65.00;100941.47;6248913;28;20425;-76
2022/06/25 10:13:59;;;;;;;0.82;0.60;;;;;;;23.72;63.14;100937.53;6249585;28;20046;-75
2022/06/25 10:17:03;;;;;;;0.70;0.70;;;;;;;23.69;63.96;100933.31;6250148;28;20485;-76
2022/06/25 10:20:08;;;;;;;1.80;0.88;;;;;;;23.54;64.67;100927.69;6245146;28;20238;-75
2022/06/25 10:23:12;;;;;;;1.50;0.95;;;;;;;23.45;63.76;100923.31;6225206;28;20061;-76
2022/06/25 10:26:14;;;;;;;0.70;0.60;;;;;;;23.47;64.04;100934.69;6224834;28;20046;-75
2022/06/25 10:29:26;;;;;;;0.95;0.55;;;;;;;23.49;61.93;100932.72;6222880;28;20058;-76
2022/06/25 10:32:34;;;;;;;0.82;0.77;;;;;;;23.60;62.74;100920.00;6221573;28;20057;-76
2022/06/25 10:35:37;;;;;;;0.70;0.70;;;;;;;23.62;61.87;100920.66;6224366;28;20049;-76
2022/06/25 10:38:38;;;;;;;0.95;0.60;;;;;;;23.59;63.10;100926.38;6224852;28;20046;-77
2022/06/25 10:45:02;;;;;;;2.35;0.77;;;;;;;23.90;61.11;100919.47;6224275;28;20053;-76
2022/06/25 10:48:05;;;;;;;2.63;0.70;;;;;;;24.10;60.55;100919.16;6224477;28;20139;-77
2022/06/25 10:51:07;;;;;;;0.60;0.60;;;;;;;24.42;58.52;100921.91;6236956;28;20088;-78
2022/06/25 10:54:13;;;;;;;1.52;0.70;;;;;;;24.67;56.77;100928.13;6248436;28;20052;-77
2022/06/25 10:57:41;;;;;;;1.38;0.68;;;;;;;24.41;57.41;100917.53;6249145;28;20069;-78
2022/06/25 11:00:46;;;;;;;1.45;0.70;;;;;;;24.17;58.96;100930.94;6248346;28;20052;-76
2022/06/25 11:03:52;;;;;;;1.23;0.85;;;;;;;24.34;59.71;100929.06;6248570;28;20061;-77
2022/06/25 11:06:53;;;;;;;1.40;0.60;;;;;;;24.44;59.74;100924.44;6248606;28;20546;-76
2022/06/25 11:09:57;;;;;;;0.75;0.65;;;;;;;24.37;59.33;100932.31;6248460;28;20516;-76
2022/06/25 11:12:59;;;;;;;2.85;1.60;;;;;;;24.36;59.65;100935.16;6243277;28;20609;-75
2022/06/25 11:16:12;;;;;;;2.83;1.38;;;;;;;24.53;60.75;100926.94;6223760;28;20042;-76
2022/06/25 11:19:15;;;;;;;1.15;0.70;;;;;;;24.52;57.78;100932.47;6223858;28;20045;-77
2022/06/25 11:22:16;;;;;;;1.95;0.85;;;;;;;24.85;56.98;100927.09;6222915;28;20061;-77
2022/06/25 11:28:52;;;;;;;0.85;0.63;;;;;;;24.96;57.55;100926.72;6223643;28;20058;-77
2022/06/25 11:31:54;;;;;;;0.63;0.60;;;;;;;25.17;55.38;100929.75;6223179;28;20046;-77
2022/06/25 11:35:00;;;;;;;0.77;0.60;;;;;;;25.00;55.21;100926.22;6223406;28;20494;-78
2022/06/25 11:38:03;;;;;;;3.42;0.80;;;;;;;24.84;55.97;100925.41;6224830;28;20517;-77
2022/06/25 11:41:04;;;;;;;1.85;0.68;;;;;;;24.86;56.49;100920.72;6229478;28;20443;-77
2022/06/25 11:44:07;;;;;;;0.85;0.70;;;;;;;25.83;53.68;100929.50;6222739;28;20460;-76
2022/06/25 11:47:09;;;;;;;0.70;0.43;;;;;;;26.47;50.95;100922.81;6221881;28;20045;-76
2022/06/25 11:50:13;;;;;;;1.63;0.50;;;;;;;26.59;50.73;100930.50;6229207;28;20072;-75
2022/06/25 11:53:16;;;;;;;1.83;0.85;;;;;;;25.96;51.71;100924.38;6247256;28;20095;-77
2022/06/25 11:56:18;;;;;;;0.85;0.68;;;;;;;25.39;53.75;100921.91;6230656;28;20057;-76
2022/06/25 11:59:23;;;;;;;0.68;0.52;;;;;;;25.70;51.04;100924.63;6222443;28;20417;-76
2022/06/25 12:02:25;;;;;;;1.08;0.38;;;;;;;26.61;48.29;100923.88;6222156;28;20402;-76
2022/06/25 12:05:28;;;;;;;0.70;0.50;;;;;;;27.22;46.88;100921.97;6228168;28;20042;-76
2022/06/25 12:08:30;;;;;;;0.57;0.43;;;;;;;27.53;44.04;100910.94;6221072;28;20049;-75
2022/06/25 12:11:32;;;;;;;1.17;0.52;;;;;;;27.93;43.65;100922.22;6221822;28;20053;-75
2022/06/25 12:14:35;;;;;;;1.60;0.50;;;;;;;27.54;44.16;100915.31;6218552;28;20050;-76
2022/06/25 12:17:38;;;;;;;0.40;0.40;;;;;;;27.74;44.60;100915.56;6222525;28;20046;-75
2022/06/25 12:20:54;;;;;;;0.60;0.50;;;;;;;28.28;42.69;100906.16;6223293;28;20050;-75
2022/06/25 12:23:58;;;;;;;0.40;0.40;;;;;;;28.81;41.93;100898.50;6221977;28;20041;-75
2022/06/25 12:27:02;;;;;;;0.93;0.40;;;;;;;29.13;39.44;100909.78;6222503;28;20141;-76
2022/06/25 12:30:04;;;;;;;0.57;0.50;;;;;;;29.14;37.92;100896.03;6221848;28;20144;-76
2022/06/25 12:33:10;;;;;;;0.63;0.60;;;;;;;29.24;38.35;100898.38;6222359;28;20135;-75
2022/06/25 12:36:19;;;;;;;0.40;0.40;;;;;;;29.42;37.75;100903.25;6221931;28;20053;-76
2022/06/25 12:39:32;;;;;;;0.57;0.40;;;;;;;29.48;38.32;100897.03;6221920;28;20046;-75
2022/06/25 12:42:34;;;;;;;0.60;0.50;;;;;;;29.42;36.50;100901.38;6221853;28;20049;-77
2022/06/25 12:45:37;;;;;;;0.40;0.40;;;;;;;29.32;36.53;100893.63;6221846;28;20482;-76
2022/06/25 12:48:38;;;;;;;1.52;0.60;;;;;;;29.21;37.23;100882.56;6222376;28;20056;-76
2022/06/25 12:51:41;;;;;;;1.88;0.50;;;;;;;29.20;37.80;100881.69;6223051;28;20056;-76
2022/06/25 12:54:45;;;;;;;0.82;0.30;;;;;;;29.56;37.08;100886.88;6221588;28;20441;-76
2022/06/25 12:57:47;;;;;;;1.10;0.68;;;;;;;29.86;35.75;100888.44;6221898;28;20046;-77
2022/06/25 13:00:48;;;;;;;1.52;0.40;;;;;;;29.83;35.21;100889.66;6221703;28;20054;-77
2022/06/25 13:03:50;;;;;;;1.42;0.50;;;;;;;30.10;34.43;100882.41;6221434;28;20536;-75
2022/06/25 13:06:53;;;;;;;0.85;0.50;;;;;;;29.87;34.87;100880.09;6223118;28;20050;-77
2022/06/25 13:09:54;;;;;;;0.88;0.52;;;;;;;29.86;34.66;100883.84;6221511;28;20053;-75
2022/06/25 13:12:56;;;;;;;2.15;0.60;;;;;;;29.05;37.77;100883.69;6222006;28;20057;-75
2022/06/25 13:15:59;;;;;;;0.65;0.50;;;;;;;28.19;38.41;100886.53;6221481;28;20428;-76
2022/06/25 13:19:01;;;;;;;0.30;0.30;;;;;;;28.74;36.35;100874.09;6221901;28;20144;-74
2022/06/25 13:22:05;;;;;;;1.20;0.55;;;;;;;29.03;36.30;100872.25;6222459;28;20054;-77
2022/06/25 13:25:09;;;;;;;0.47;0.30;;;;;;;29.26;36.05;100872.78;6221166;28;20046;-76
2022/06/25 13:28:11;;;;;;;0.40;0.40;;;;;;;29.63;35.60;100872.53;6221912;28;20056;-77
2022/06/25 13:31:12;;;;;;;0.50;0.50;;;;;;;29.68;34.34;100879.00;6221082;28;20053;-76
2022/06/25 13:34:14;;;;;;;4.65;0.60;;;;;;;30.13;34.53;100878.47;6221299;28;20057;-74
2022/06/25 13:37:17;;;;;;;2.22;1.40;;;;;;;30.08;35.58;100879.94;6221474;28;20057;-73
2022/06/25 13:40:18;;;;;;;0.50;0.50;;;;;;;30.02;34.61;100879.91;6216766;28;20046;-76
2022/06/25 13:43:20;;;;;;;0.47;0.40;;;;;;;30.35;33.44;100881.84;6221278;28;20057;-76
2022/06/25 13:46:21;;;;;;;0.52;0.52;;;;;;;30.19;33.66;100870.38;6223413;28;20049;-75
2022/06/25 13:49:23;;;;;;;0.55;0.43;;;;;;;30.33;32.44;100861.19;6225991;28;20090;-76
2022/06/25 13:52:26;;;;;;;0.40;0.40;;;;;;;30.36;33.14;100857.22;6225721;28;20088;-74
2022/06/25 13:55:27;;;;;;;0.40;0.40;;;;;;;30.62;33.42;100864.53;6224264;28;20441;-76
2022/06/25 13:58:29;;;;;;;0.57;0.47;;;;;;;30.55;33.24;100863.69;6225794;28;20046;-76
2022/06/25 14:01:30;;;;;;;0.47;0.43;;;;;;;29.95;32.56;100869.06;6225346;28;20062;-77
2022/06/25 14:04:31;;;;;;;0.47;0.47;;;;;;;29.98;33.02;100873.25;6223028;28;20050;-76
2022/06/25 14:07:34;;;;;;;3.03;0.45;;;;;;;30.30;33.45;100858.09;6224765;28;20049;-76
2022/06/25 14:10:35;;;;;;;0.40;0.40;;;;;;;30.46;32.86;100865.78;6217995;28;20049;-75
2022/06/25 14:13:37;;;;;;;1.15;0.50;;;;;;;29.77;33.96;100869.66;6225491;28;20049;-75
2022/06/25 14:16:40;;;;;;;0.40;0.40;;;;;;;29.52;35.12;100858.53;6224875;28;20425;-75
2022/06/25 14:19:41;;;;;;;0.50;0.50;;;;;;;29.96;34.12;100864.47;6230211;28;20451;-76
2022/06/25 14:22:44;;;;;;;0.68;0.43;;;;;;;29.81;33.94;100867.38;6250431;28;20045;-78
2022/06/25 14:25:45;;;;;;;0.50;0.50;;;;;;;29.50;34.99;100860.56;6249542;28;20489;-77
2022/06/25 14:28:47;;;;;;;0.75;0.60;;;;;;;29.47;34.44;100852.03;6249895;28;20522;-77